• Join FlightAware (Why Join?)
  • Login
  • US Flag 
12:27AM EDT


 

Airport Tracker/Info


-or-


 

Live Flight TrackerFlight Track Log ✈ UAL4625 ✈ 23-Nov-2013 ✈ KEWR - KBWI

Flight Track Log - Related Links

Times and Time Zones

All times are in EST time to prevent confusion due to time zone crossing. See the UAL4625 flight status page for this flight to view local times or setup timezone preferences in your user account.

Time Position Orientation Groundspeed Altitude Reporting Facility
EST Latitude Longitude Course Direction KTS MPH feet Rate Location/Type
10:03AM 40.7167 -74.1500 217° Southwest 163 188 1,300  Level New York TRACON
10:03AM 40.7500 -74.1333 21° North 221 254 3,300 2,400 Climbing New York TRACON
10:05AM 40.7833 -74.1833 311° West 239 275 6,200 2,880 Climbing New York TRACON
10:06AM 40.7667 -74.2667 255° West 250 288 9,400 2,460 Climbing New York TRACON
10:08AM 40.4932 -74.5087 217° Southwest  Level Estimated
10:08AM 40.6850 -74.5339 248° West 279 321 15,800  Level New York Center
10:09AM 40.6322 -74.6214 232° Southwest 298 343 16,700 960 Climbing New York Center
10:10AM 40.5772 -74.7111 231° Southwest 314 361 17,800 600 Climbing New York Center
10:11AM 40.5217 -74.8089 233° Southwest 324 373 18,000 60 Climbing New York Center
10:12AM 40.4642 -74.9036 231° Southwest 342 394 18,000  Level New York Center
10:13AM 40.4047 -74.9983 231° Southwest 342 394 18,000  Level New York Center
10:14AM 40.3475 -75.0792 227° Southwest 334 384 18,000  Level New York Center
10:15AM 40.2839 -75.1678 227° Southwest 339 390 18,000  Level New York Center
10:16AM 40.2200 -75.2561 227° Southwest 339 390 18,000  Level New York Center
10:17AM 40.1542 -75.3442 226° Southwest 339 390 18,000  Level New York Center
10:18AM 40.0833 -75.4453 228° Southwest 339 390 18,000  Level New York Center
10:19AM 40.0194 -75.5333 227° Southwest 334 384 18,000 -240 Level New York Center
10:20AM 39.9533 -75.6208 225° Southwest 334 384 17,600 -900 Descending New York Center
10:21AM 39.8953 -75.7142 231° Southwest 334 384 16,300 -840 Descending New York Center
10:22AM 39.8453 -75.8108 236° Southwest 334 384 16,000 -660 Descending New York Center
10:23AM 39.8042 -75.8917 237° Southwest 314 361 15,000 -1,260 Descending New York Center
10:25AM 39.7000 -76.0667 232° Southwest 273 314 12,400 -1,020 Descending Potomac TRACON
10:26AM 39.6667 -76.1500 243° Southwest 239 275 12,000 -1,080 Descending Potomac TRACON
10:27AM 39.6167 -76.2000 218° Southwest 247 284 10,200 -1,860 Descending Potomac TRACON
10:28AM 39.5500 -76.2667 218° Southwest 258 297 8,200 -2,100 Descending Potomac TRACON
10:29AM 39.5000 -76.3167 218° Southwest 256 295 6,300 -1,620 Descending Potomac TRACON
10:30AM 39.4500 -76.3833 226° Southwest 254 292 5,000 -720 Descending Potomac TRACON
10:31AM 39.3833 -76.4167 201° Southwest 261 300 4,900 -480 Descending Potomac TRACON
10:32AM 39.3167 -76.4167 180° South 267 307 4,100 -840 Descending Potomac TRACON
10:33AM 39.2500 -76.4333 191° South 263 303 3,400 -1,020 Descending Potomac TRACON
10:34AM 39.1833 -76.4833 210° Southwest 248 285 2,100 -720 Descending Potomac TRACON
10:35AM 39.1333 -76.5333 218° Southwest 231 266 2,000 -120 Descending Potomac TRACON
10:36AM 39.1167 -76.5833 247° West 191 220 1,900 -420 Descending Potomac TRACON
10:37AM 39.1333 -76.6333 293° West 146 168 1,200 -780 Descending Potomac TRACON
10:38AM 39.1500 -76.6500 322° Northwest 121 139 500 -720 Descending Potomac TRACON